Time;durP1;ratioP1;P1;durP2;ratioP2;P2;SDS_P1;SDS_P2;PMS_P1;PMS_P2;Temp;Humidity;BMP_temperature;BMP_pressure;BME280_temperature;BME280_humidity;BME280_pressure;Samples;Min_cycle;Max_cycle;Signal;HPM_P1;HPM_P2
2021/03/08 00:00:21;;;;;;;10.65;2.72;;;27.20;61.70;;;;;;4999004;28;20037;-68
2021/03/08 00:02:49;;;;;;;8.10;2.10;;;27.20;61.50;;;;;;5002382;28;20037;-69
2021/03/08 00:05:18;;;;;;;12.38;2.88;;;27.30;61.00;;;;;;5002897;28;20036;-70
2021/03/08 00:07:47;;;;;;;8.45;2.85;;;27.60;60.90;;;;;;5002915;28;20034;-70
2021/03/08 00:10:16;;;;;;;6.90;2.35;;;28.00;59.70;;;;;;5000442;28;20085;-69
2021/03/08 00:12:45;;;;;;;8.90;2.67;;;28.00;60.40;;;;;;4999413;28;20411;-72
2021/03/08 00:15:13;;;;;;;7.60;3.05;;;28.30;59.30;;;;;;5002730;28;20026;-69
2021/03/08 00:17:41;;;;;;;14.60;3.22;;;28.60;58.80;;;;;;5002480;28;20041;-69
2021/03/08 00:20:12;;;;;;;8.63;2.50;;;29.10;57.30;;;;;;5000392;28;20876;-68
2021/03/08 00:22:41;;;;;;;10.35;2.65;;;29.20;57.50;;;;;;5001643;28;20038;-70
2021/03/08 00:25:12;;;;;;;5.75;2.17;;;29.20;57.30;;;;;;5001856;28;20033;-70
2021/03/08 00:27:40;;;;;;;6.22;1.95;;;29.00;58.30;;;;;;5002566;28;20488;-69
2021/03/08 00:30:08;;;;;;;10.70;2.33;;;28.80;58.10;;;;;;4999793;28;20034;-70
2021/03/08 00:32:36;;;;;;;6.35;1.98;;;28.40;58.80;;;;;;4999879;28;20144;-68
2021/03/08 00:35:08;;;;;;;9.65;2.28;;;28.60;58.40;;;;;;5002363;28;20097;-69
2021/03/08 00:37:36;;;;;;;10.23;2.80;;;28.70;59.40;;;;;;5001314;28;20069;-70
2021/03/08 00:40:06;;;;;;;9.43;2.35;;;29.10;59.50;;;;;;5014501;28;20022;-69
2021/03/08 00:42:35;;;;;;;8.27;2.42;;;29.60;57.50;;;;;;5000531;28;20122;-68
2021/03/08 00:45:14;;;;;;;8.32;2.00;;;29.80;56.30;;;;;;5002931;28;20073;-67
2021/03/08 00:47:42;;;;;;;10.82;2.63;;;29.70;56.00;;;;;;5001624;28;20034;-68
2021/03/08 00:50:14;;;;;;;5.68;1.63;;;29.90;56.60;;;;;;4998812;28;20061;-68
2021/03/08 00:52:43;;;;;;;8.07;2.65;;;30.00;55.20;;;;;;5001126;28;20041;-67
2021/03/08 00:55:12;;;;;;;7.82;1.90;;;30.20;56.10;;;;;;5002486;28;20467;-67
2021/03/08 00:57:41;;;;;;;8.85;2.00;;;30.10;56.40;;;;;;5002349;28;20049;-67
2021/03/08 01:00:11;;;;;;;8.23;2.40;;;30.20;56.00;;;;;;4998585;28;20496;-68
2021/03/08 01:02:39;;;;;;;7.97;2.00;;;30.10;57.10;;;;;;5000200;28;20413;-70
2021/03/08 01:05:07;;;;;;;6.82;1.88;;;30.00;56.00;;;;;;5002738;28;20748;-70
2021/03/08 01:07:35;;;;;;;8.55;2.25;;;30.00;55.90;;;;;;5002194;28;20058;-68
2021/03/08 01:10:09;;;;;;;4.38;1.73;;;30.10;56.90;;;;;;4999360;28;20491;-68
2021/03/08 01:12:37;;;;;;;8.75;2.40;;;29.80;56.60;;;;;;4999634;28;20053;-69
2021/03/08 01:15:05;;;;;;;9.25;2.28;;;29.90;57.50;;;;;;5002829;28;20507;-69
2021/03/08 01:17:32;;;;;;;7.85;2.10;;;29.70;57.00;;;;;;5001323;28;20057;-68
2021/03/08 01:20:00;;;;;;;5.85;2.72;;;29.80;58.00;;;;;;4999671;28;20033;-72
2021/03/08 01:22:28;;;;;;;5.80;2.92;;;30.60;55.60;;;;;;5000942;28;20034;-72
2021/03/08 01:24:55;;;;;;;9.48;3.22;;;31.40;54.40;;;;;;5001950;28;20038;-69
2021/03/08 01:27:23;;;;;;;6.60;2.03;;;31.30;54.00;;;;;;5002296;28;20022;-68
2021/03/08 01:29:50;;;;;;;8.70;1.75;;;31.50;53.30;;;;;;4999639;28;20793;-69
2021/03/08 01:32:17;;;;;;;5.70;1.75;;;31.70;53.00;;;;;;5000939;28;20030;-69
2021/03/08 01:34:45;;;;;;;5.53;1.92;;;31.60;52.50;;;;;;5001713;28;20037;-70
2021/03/08 01:37:12;;;;;;;5.45;1.55;;;31.70;53.20;;;;;;5001528;28;20519;-72
2021/03/08 01:39:40;;;;;;;5.78;1.52;;;32.00;51.50;;;;;;4998579;28;20038;-72
2021/03/08 01:42:07;;;;;;;8.52;2.08;;;31.90;52.20;;;;;;5000955;28;20492;-69
2021/03/08 01:44:35;;;;;;;8.05;2.10;;;32.00;52.10;;;;;;5002155;28;20133;-68
2021/03/08 01:47:02;;;;;;;5.32;2.92;;;32.10;51.50;;;;;;5006202;28;20507;-70
2021/03/08 01:49:29;;;;;;;9.13;1.73;;;32.30;51.30;;;;;;4999819;28;20436;-66
2021/03/08 01:51:57;;;;;;;9.32;2.42;;;32.60;51.20;;;;;;5006300;28;20030;-69
2021/03/08 01:54:24;;;;;;;4.25;1.42;;;32.50;50.80;;;;;;5004314;28;20030;-69
2021/03/08 01:56:53;;;;;;;6.18;1.55;;;32.00;51.10;;;;;;5007306;28;20092;-70
2021/03/08 01:59:21;;;;;;;4.72;2.00;;;31.40;51.90;;;;;;5002741;28;20493;-67
2021/03/08 02:01:50;;;;;;;6.53;1.30;;;31.10;53.00;;;;;;5003416;28;20440;-71
2021/03/08 02:04:18;;;;;;;5.05;1.98;;;31.20;53.00;;;;;;5004954;28;20485;-70
2021/03/08 02:06:45;;;;;;;12.10;3.83;;;31.20;54.10;;;;;;5005577;28;20060;-69
2021/03/08 02:09:13;;;;;;;7.88;1.67;;;31.40;53.10;;;;;;5001627;28;20034;-69
2021/03/08 02:11:43;;;;;;;5.90;1.73;;;31.80;52.50;;;;;;5004781;28;20121;-70
2021/03/08 02:14:42;;;;;;;6.28;1.80;;;32.20;51.40;;;;;;5003153;28;20046;-68
2021/03/08 02:17:17;;;;;;;6.07;2.30;;;32.40;50.80;;;;;;5004114;28;20041;-68
2021/03/08 02:20:21;;;;;;;5.70;1.65;;;32.10;50.70;;;;;;5001190;28;20040;-68
2021/03/08 02:23:15;;;;;;;8.15;2.20;;;31.60;52.40;;;;;;5003718;28;20174;-70
2021/03/08 02:26:08;;;;;;;5.97;1.88;;;31.70;51.50;;;;;;5003761;28;20061;-69
2021/03/08 02:28:50;;;;;;;5.57;2.22;;;31.60;52.10;;;;;;5003056;28;20570;-68
2021/03/08 02:31:20;;;;;;;5.80;1.80;;;31.60;50.50;;;;;;5004408;28;20104;-68
2021/03/08 02:34:02;;;;;;;5.90;1.40;;;32.00;49.60;;;;;;5003528;28;20568;-69
2021/03/08 02:36:40;;;;;;;6.90;2.15;;;32.80;49.10;;;;;;5005123;28;20022;-69
2021/03/08 02:39:16;;;;;;;3.35;1.38;;;33.60;47.70;;;;;;5000649;28;20037;-70
2021/03/08 02:41:47;;;;;;;2.95;1.45;;;34.00;45.60;;;;;;5003300;28;20076;-71
2021/03/08 02:44:18;;;;;;;6.75;1.27;;;33.90;44.70;;;;;;5003332;28;20283;-74
2021/03/08 02:46:50;;;;;;;3.88;1.02;;;33.60;45.40;;;;;;5004768;28;20564;-73
2021/03/08 02:49:21;;;;;;;5.65;1.30;;;33.10;45.00;;;;;;5001112;28;20045;-74
2021/03/08 02:52:00;;;;;;;6.05;1.45;;;32.70;47.60;;;;;;5004798;28;20030;-69
2021/03/08 02:54:30;;;;;;;4.47;1.67;;;32.50;48.40;;;;;;5004354;28;20022;-70
2021/03/08 02:57:05;;;;;;;3.45;1.30;;;32.20;47.20;;;;;;5003912;28;20124;-68
2021/03/08 02:59:36;;;;;;;3.55;1.40;;;31.90;47.80;;;;;;5001041;28;20401;-70
2021/03/08 03:02:06;;;;;;;4.53;1.67;;;31.60;48.80;;;;;;5001667;28;20045;-68
2021/03/08 03:04:37;;;;;;;5.97;2.00;;;31.30;49.80;;;;;;5004409;28;20034;-69
2021/03/08 03:07:06;;;;;;;3.33;1.65;;;31.10;50.30;;;;;;5004059;28;20080;-74
2021/03/08 03:09:35;;;;;;;5.78;2.22;;;31.00;51.30;;;;;;5001466;28;20145;-72
2021/03/08 03:12:03;;;;;;;5.00;1.42;;;30.80;50.70;;;;;;5003307;28;20512;-67
2021/03/08 03:14:31;;;;;;;5.13;1.80;;;30.60;51.30;;;;;;5002210;28;20034;-67
2021/03/08 03:17:07;;;;;;;4.45;1.48;;;30.60;51.10;;;;;;5001961;28;20052;-70
2021/03/08 03:19:41;;;;;;;6.40;1.83;;;30.50;50.90;;;;;;5000320;28;20021;-73
2021/03/08 03:22:13;;;;;;;3.45;1.33;;;30.40;51.00;;;;;;5002092;28;20026;-70
2021/03/08 03:24:42;;;;;;;5.88;1.00;;;30.30;51.50;;;;;;5003850;28;20091;-71
2021/03/08 03:27:10;;;;;;;4.55;1.80;;;30.30;51.90;;;;;;5002753;28;20026;-67
2021/03/08 03:29:38;;;;;;;6.57;1.45;;;30.20;52.30;;;;;;5001073;28;20022;-67
2021/03/08 03:32:07;;;;;;;4.55;1.63;;;30.10;52.90;;;;;;5002336;28;20171;-73
2021/03/08 03:34:35;;;;;;;3.53;1.30;;;30.00;53.80;;;;;;5003417;28;20028;-73
2021/03/08 03:37:03;;;;;;;5.43;1.95;;;29.80;53.90;;;;;;5004020;28;20026;-70
2021/03/08 03:39:31;;;;;;;13.77;1.90;;;29.70;54.50;;;;;;4999095;28;20072;-74
2021/03/08 03:41:58;;;;;;;5.15;2.15;;;29.70;54.50;;;;;;5005046;28;20025;-67
2021/03/08 03:44:26;;;;;;;6.93;1.55;;;29.60;55.10;;;;;;5004686;28;20049;-67
2021/03/08 03:46:53;;;;;;;8.73;1.83;;;29.60;54.40;;;;;;5006148;28;20909;-73
2021/03/08 03:49:21;;;;;;;5.68;1.63;;;29.50;54.30;;;;;;5001412;28;20029;-67
2021/03/08 03:51:48;;;;;;;3.22;1.80;;;29.50;54.70;;;;;;5002992;28;20022;-69
2021/03/08 03:54:16;;;;;;;7.28;1.70;;;29.40;54.50;;;;;;5001454;28;20045;-68
2021/03/08 03:56:56;;;;;;;5.68;1.77;;;29.40;54.60;;;;;;5004028;28;20172;-69
2021/03/08 03:59:27;;;;;;;8.52;1.85;;;29.40;55.20;;;;;;5000268;28;20120;-70
2021/03/08 04:01:58;;;;;;;6.75;1.60;;;29.40;55.40;;;;;;5003025;28;20054;-71
2021/03/08 04:04:50;;;;;;;6.03;1.45;;;29.30;56.00;;;;;;5000141;28;20786;-68
2021/03/08 04:07:19;;;;;;;6.80;2.22;;;29.30;55.10;;;;;;5001820;28;20443;-72
2021/03/08 04:09:50;;;;;;;5.13;1.67;;;29.30;55.70;;;;;;5000568;28;20037;-67
2021/03/08 04:12:28;;;;;;;3.92;1.83;;;29.40;55.50;;;;;;5002117;28;20077;-70
2021/03/08 04:14:59;;;;;;;4.30;1.60;;;29.40;55.30;;;;;;5002642;28;20087;-69
2021/03/08 04:17:29;;;;;;;3.67;1.75;;;29.40;54.90;;;;;;5003530;28;20088;-68
2021/03/08 04:19:59;;;;;;;6.13;1.63;;;29.50;55.10;;;;;;5003080;28;20112;-73
2021/03/08 04:22:30;;;;;;;6.07;1.70;;;29.60;55.70;;;;;;5004142;28;20044;-68
2021/03/08 04:24:59;;;;;;;8.63;1.48;;;29.80;55.10;;;;;;5004954;28;20026;-68
2021/03/08 04:27:28;;;;;;;5.55;1.75;;;30.00;55.50;;;;;;5004659;28;20049;-69
2021/03/08 04:29:56;;;;;;;5.25;1.48;;;30.40;52.70;;;;;;5001845;28;20527;-72
2021/03/08 04:32:24;;;;;;;5.72;1.55;;;30.90;51.90;;;;;;5001677;28;20276;-69
2021/03/08 04:34:53;;;;;;;3.22;1.45;;;30.90;50.90;;;;;;5003337;28;20872;-68
2021/03/08 04:37:21;;;;;;;4.82;1.73;;;30.80;51.20;;;;;;5002974;28;20032;-71
2021/03/08 04:39:51;;;;;;;5.95;1.17;;;30.80;52.40;;;;;;4998220;28;20111;-70
2021/03/08 04:42:21;;;;;;;8.80;1.35;;;30.70;51.70;;;;;;5001099;28;20036;-68
2021/03/08 04:44:49;;;;;;;4.03;1.42;;;30.60;51.60;;;;;;5001889;28;20512;-68
2021/03/08 04:47:20;;;;;;;6.82;1.88;;;30.40;53.10;;;;;;5002513;28;20107;-68
2021/03/08 04:49:49;;;;;;;5.03;1.70;;;30.30;52.60;;;;;;4997794;28;20018;-68
2021/03/08 04:52:20;;;;;;;5.07;1.65;;;30.10;53.50;;;;;;5000278;28;20036;-67
2021/03/08 04:54:48;;;;;;;4.72;1.55;;;30.00;53.90;;;;;;5001716;28;20038;-69
2021/03/08 04:57:22;;;;;;;6.05;1.25;;;29.80;54.00;;;;;;5002495;28;20376;-69
2021/03/08 04:59:51;;;;;;;7.13;1.40;;;29.70;54.90;;;;;;4999027;28;20057;-70
2021/03/08 05:02:22;;;;;;;5.57;1.00;;;29.60;54.80;;;;;;5000562;28;20021;-70
2021/03/08 05:04:52;;;;;;;4.38;1.77;;;29.50;54.90;;;;;;5001724;28;20046;-71
2021/03/08 05:07:23;;;;;;;3.25;1.55;;;29.40;55.50;;;;;;5002510;28;20400;-69
2021/03/08 05:09:54;;;;;;;3.55;1.20;;;29.30;56.00;;;;;;4998678;28;20026;-67
2021/03/08 05:12:24;;;;;;;2.78;1.23;;;29.30;55.50;;;;;;5000720;28;20046;-69
2021/03/08 05:14:53;;;;;;;3.92;1.38;;;29.20;56.60;;;;;;5000105;28;20061;-69
2021/03/08 05:17:22;;;;;;;7.07;1.35;;;29.10;56.30;;;;;;5002126;28;20030;-70
2021/03/08 05:19:50;;;;;;;5.50;1.48;;;29.00;56.50;;;;;;5000396;28;20566;-69
2021/03/08 05:22:19;;;;;;;13.32;2.30;;;29.00;57.40;;;;;;5004415;28;20514;-71
2021/03/08 05:24:50;;;;;;;8.70;1.90;;;27.60;67.10;;;;;;5006253;28;20080;-69
2021/03/08 05:27:18;;;;;;;8.43;1.75;;;25.60;68.00;;;;;;5003299;28;20117;-72
2021/03/08 05:29:47;;;;;;;8.38;2.50;;;24.10;72.90;;;;;;5000782;28;20085;-68
2021/03/08 05:32:20;;;;;;;9.40;2.28;;;23.20;75.80;;;;;;5002359;28;20036;-69
2021/03/08 05:34:50;;;;;;;12.35;2.60;;;22.10;80.30;;;;;;5003838;28;20563;-70
2021/03/08 05:37:19;;;;;;;11.23;4.18;;;21.00;83.40;;;;;;5004529;28;20037;-72
2021/03/08 05:39:48;;;;;;;7.68;1.80;;;20.20;88.60;;;;;;5000804;28;20033;-70
2021/03/08 05:42:17;;;;;;;11.25;3.17;;;19.60;89.70;;;;;;5002176;28;20030;-74
2021/03/08 05:44:53;;;;;;;5.45;2.10;;;19.50;91.40;;;;;;5005789;28;20148;-70
2021/03/08 05:47:23;;;;;;;9.80;3.10;;;19.50;91.70;;;;;;5003704;28;20496;-67
2021/03/08 05:50:13;;;;;;;7.43;2.40;;;19.60;91.90;;;;;;5001357;28;20026;-71
2021/03/08 05:52:53;;;;;;;10.35;3.47;;;20.00;91.10;;;;;;5000111;28;20050;-74
2021/03/08 05:55:41;;;;;;;11.32;2.33;;;20.50;89.80;;;;;;5005745;28;20022;-69
2021/03/08 05:58:30;;;;;;;8.02;1.58;;;20.70;87.60;;;;;;5004094;28;20554;-74
2021/03/08 06:01:15;;;;;;;9.32;1.90;;;20.80;85.70;;;;;;5001737;28;20034;-78
2021/03/08 06:04:14;;;;;;;10.27;2.50;;;20.40;88.60;;;;;;5002061;28;20029;-71
2021/03/08 06:06:48;;;;;;;11.75;2.70;;;20.10;90.20;;;;;;5004352;28;20029;-75
2021/03/08 06:09:22;;;;;;;10.27;2.92;;;20.10;90.70;;;;;;5000116;28;20030;-69
2021/03/08 06:11:53;;;;;;;6.43;2.63;;;20.50;92.00;;;;;;5004349;28;20459;-75
2021/03/08 06:14:28;;;;;;;9.20;2.58;;;20.80;91.40;;;;;;5002980;28;20435;-67
2021/03/08 06:16:57;;;;;;;4.75;1.98;;;21.00;90.90;;;;;;5004139;28;20137;-69
2021/03/08 06:19:25;;;;;;;7.70;1.85;;;21.20;90.60;;;;;;5001458;28;20384;-70
2021/03/08 06:21:54;;;;;;;12.35;2.55;;;21.50;90.50;;;;;;5003206;28;20026;-71
2021/03/08 06:24:22;;;;;;;4.20;1.80;;;21.70;90.10;;;;;;5001362;28;20704;-72
2021/03/08 06:26:52;;;;;;;6.82;2.30;;;21.90;88.50;;;;;;5005137;28;20029;-78
2021/03/08 06:29:20;;;;;;;6.50;2.47;;;22.20;87.60;;;;;;5001606;28;20037;-67
2021/03/08 06:31:49;;;;;;;6.45;1.50;;;22.50;85.10;;;;;;5003226;28;20080;-66
2021/03/08 06:34:16;;;;;;;6.60;1.40;;;22.80;83.90;;;;;;5003698;28;20489;-69
2021/03/08 06:36:45;;;;;;;4.30;1.83;;;23.10;81.90;;;;;;5006920;28;20037;-73
2021/03/08 06:39:14;;;;;;;6.95;1.38;;;23.00;82.10;;;;;;5002050;28;20022;-70
2021/03/08 06:41:42;;;;;;;5.65;1.15;;;23.00;76.50;;;;;;4998998;28;20488;-73
2021/03/08 06:44:09;;;;;;;3.33;1.20;;;23.00;78.30;;;;;;5001743;28;20042;-66
2021/03/08 06:46:39;;;;;;;4.35;1.55;;;23.00;78.00;;;;;;5003817;28;20109;-73
2021/03/08 06:49:07;;;;;;;5.53;1.50;;;23.10;79.40;;;;;;5002911;28;20452;-66
2021/03/08 06:51:34;;;;;;;5.97;1.88;;;23.20;77.60;;;;;;5005844;28;20044;-68
2021/03/08 06:54:01;;;;;;;4.63;2.22;;;23.30;78.50;;;;;;5003760;28;20050;-66
2021/03/08 06:56:33;;;;;;;8.40;3.47;;;23.40;79.40;;;;;;5009755;28;20030;-66
2021/03/08 06:59:12;;;;;;;9.10;4.05;;;23.60;79.10;;;;;;5004830;28;20041;-68
2021/03/08 07:01:41;;;;;;;7.78;2.63;;;23.70;79.80;;;;;;5010142;28;20026;-68
2021/03/08 07:04:22;;;;;;;8.77;2.75;;;23.70;79.60;;;;;;5001590;28;20026;-66
2021/03/08 07:07:04;;;;;;;6.30;2.53;;;23.70;80.70;;;;;;5004400;28;20038;-67
2021/03/08 07:09:32;;;;;;;5.65;1.70;;;23.70;80.40;;;;;;4999859;28;20034;-67
2021/03/08 07:12:06;;;;;;;5.82;2.38;;;23.70;80.40;;;;;;5001158;28;20030;-67
2021/03/08 07:14:34;;;;;;;4.57;1.83;;;23.70;80.60;;;;;;5000760;28;20113;-70
2021/03/08 07:17:01;;;;;;;4.60;2.28;;;23.70;80.80;;;;;;5003241;28;20025;-69
2021/03/08 07:19:29;;;;;;;9.48;2.20;;;23.70;80.90;;;;;;4999683;28;21402;-68
2021/03/08 07:21:56;;;;;;;4.22;1.70;;;23.60;80.70;;;;;;5003610;28;20087;-66
2021/03/08 07:24:24;;;;;;;5.32;1.65;;;23.70;80.70;;;;;;5001641;28;20030;-68
2021/03/08 07:26:53;;;;;;;4.30;1.52;;;23.80;81.10;;;;;;5002243;28;20030;-67
2021/03/08 07:29:25;;;;;;;7.93;1.60;;;23.80;81.40;;;;;;4997128;28;20104;-67
2021/03/08 07:31:53;;;;;;;4.07;1.75;;;23.80;81.10;;;;;;5002611;28;20030;-66
2021/03/08 07:34:21;;;;;;;4.40;1.95;;;23.90;81.60;;;;;;5001483;28;20026;-67
2021/03/08 07:37:02;;;;;;;4.15;1.75;;;23.80;80.70;;;;;;5001982;28;20081;-67
2021/03/08 07:39:30;;;;;;;3.42;1.50;;;23.70;82.00;;;;;;4999611;28;20038;-68
2021/03/08 07:42:09;;;;;;;4.35;1.80;;;23.70;81.10;;;;;;5001291;28;20034;-67
2021/03/08 07:44:49;;;;;;;5.60;1.45;;;23.60;81.50;;;;;;5003272;28;20080;-69
2021/03/08 07:47:21;;;;;;;4.60;1.60;;;23.50;83.20;;;;;;5001683;28;20022;-67
2021/03/08 07:49:49;;;;;;;5.88;2.10;;;23.40;83.30;;;;;;4999250;28;20029;-66
2021/03/08 07:52:20;;;;;;;6.78;2.00;;;23.40;83.60;;;;;;5001598;28;20737;-66
2021/03/08 07:54:59;;;;;;;5.90;1.40;;;23.30;83.60;;;;;;5000588;28;20044;-67
2021/03/08 07:57:28;;;;;;;4.20;1.42;;;23.20;83.60;;;;;;5000946;28;20112;-66
2021/03/08 07:59:56;;;;;;;3.88;1.48;;;23.20;83.60;;;;;;4999175;28;20041;-67
2021/03/08 08:02:24;;;;;;;2.30;1.15;;;23.30;84.00;;;;;;5001528;28;20072;-68
2021/03/08 08:04:51;;;;;;;2.30;1.10;;;23.30;83.50;;;;;;5001144;28;20015;-68
2021/03/08 08:07:26;;;;;;;1.83;1.25;;;23.20;82.60;;;;;;5001648;28;20022;-66
2021/03/08 08:09:55;;;;;;;4.30;1.27;;;23.10;83.40;;;;;;4998321;28;20033;-68
2021/03/08 08:12:31;;;;;;;3.00;1.77;;;23.00;83.60;;;;;;5000765;28;20806;-66
2021/03/08 08:15:01;;;;;;;3.80;1.50;;;22.90;84.10;;;;;;5002425;28;20398;-67
2021/03/08 08:17:32;;;;;;;4.72;1.48;;;22.80;84.80;;;;;;5002336;28;20029;-67
2021/03/08 08:20:01;;;;;;;2.97;1.70;;;22.80;85.90;;;;;;4999404;28;20080;-67
2021/03/08 08:22:33;;;;;;;6.57;1.83;;;22.90;85.40;;;;;;4999848;28;20037;-66
2021/03/08 08:25:04;;;;;;;3.95;1.42;;;22.90;84.30;;;;;;5002675;28;20053;-66
2021/03/08 08:27:34;;;;;;;4.90;1.40;;;22.90;83.90;;;;;;5002874;28;20148;-67
2021/03/08 08:30:03;;;;;;;4.32;1.60;;;23.00;84.60;;;;;;4997828;28;20056;-66
2021/03/08 08:32:50;;;;;;;4.50;2.08;;;23.00;83.90;;;;;;4999548;28;20042;-69
2021/03/08 08:35:20;;;;;;;2.90;1.40;;;23.00;84.10;;;;;;5001432;28;20115;-67
2021/03/08 08:38:15;;;;;;;2.83;1.13;;;22.90;83.60;;;;;;5002997;28;20079;-68
2021/03/08 08:40:45;;;;;;;4.82;1.88;;;22.90;83.90;;;;;;4998211;28;20476;-68
2021/03/08 08:43:15;;;;;;;6.05;1.85;;;22.80;83.60;;;;;;5000078;28;20026;-69
2021/03/08 08:45:48;;;;;;;6.80;1.83;;;22.70;84.40;;;;;;5002870;28;20034;-68
2021/03/08 08:48:16;;;;;;;3.30;1.80;;;22.50;85.20;;;;;;5002112;28;20030;-66
2021/03/08 08:50:52;;;;;;;5.30;1.55;;;22.40;86.50;;;;;;4999745;28;20054;-66
2021/03/08 08:53:42;;;;;;;7.22;1.40;;;22.40;87.30;;;;;;4997611;28;20040;-66
2021/03/08 08:56:10;;;;;;;4.78;1.83;;;22.40;86.80;;;;;;5000929;28;20034;-68
2021/03/08 08:58:52;;;;;;;4.82;2.00;;;22.30;87.00;;;;;;5001400;28;20042;-65
2021/03/08 09:03:56;;;;;;;5.63;2.05;;;22.10;87.50;;;;;;4998522;28;20029;-66
2021/03/08 09:06:43;;;;;;;8.93;2.50;;;22.10;87.90;;;;;;5001276;28;20069;-67
2021/03/08 09:09:12;;;;;;;6.70;1.60;;;22.00;87.80;;;;;;5001075;28;20029;-67
2021/03/08 09:12:02;;;;;;;4.85;1.92;;;22.00;88.10;;;;;;5000087;28;20057;-65
2021/03/08 09:14:40;;;;;;;2.95;2.10;;;22.00;87.50;;;;;;4999231;28;20050;-66
2021/03/08 09:17:29;;;;;;;6.63;2.13;;;22.00;87.40;;;;;;5002756;28;20029;-67
2021/03/08 09:19:57;;;;;;;5.25;2.47;;;22.00;88.10;;;;;;4997684;28;20692;-69
2021/03/08 09:22:24;;;;;;;4.00;2.10;;;22.00;87.80;;;;;;4999755;28;20153;-68
2021/03/08 09:24:53;;;;;;;4.63;2.05;;;22.00;87.60;;;;;;5002140;28;20045;-67
2021/03/08 09:27:35;;;;;;;3.60;2.35;;;22.00;88.00;;;;;;5000329;28;20365;-68
2021/03/08 09:30:08;;;;;;;3.17;2.00;;;22.00;88.20;;;;;;4998230;28;20037;-68
2021/03/08 09:32:37;;;;;;;5.28;1.90;;;22.10;88.10;;;;;;4999335;28;20656;-70
2021/03/08 09:35:08;;;;;;;4.53;2.42;;;22.10;87.40;;;;;;5003868;28;20030;-66
2021/03/08 09:37:36;;;;;;;6.28;2.53;;;22.10;87.20;;;;;;5001831;28;20033;-67
2021/03/08 09:40:06;;;;;;;3.88;2.30;;;22.10;87.20;;;;;;4998820;28;20030;-66
2021/03/08 09:42:37;;;;;;;5.35;2.00;;;22.00;87.40;;;;;;4998239;28;20197;-67
2021/03/08 09:45:31;;;;;;;5.57;2.20;;;22.00;87.80;;;;;;5000638;28;20149;-67
2021/03/08 09:48:00;;;;;;;4.10;1.90;;;22.00;87.30;;;;;;4999197;28;20066;-68
2021/03/08 09:50:38;;;;;;;5.85;2.88;;;22.00;87.50;;;;;;4982066;28;20605;-67
2021/03/08 09:53:07;;;;;;;6.22;2.38;;;22.00;87.20;;;;;;4998944;28;20101;-67
2021/03/08 09:55:38;;;;;;;4.50;2.28;;;22.00;87.60;;;;;;4999555;28;20038;-65
2021/03/08 09:58:19;;;;;;;5.32;2.25;;;22.00;87.00;;;;;;5001162;28;20053;-67
2021/03/08 10:00:52;;;;;;;4.13;2.30;;;22.00;87.30;;;;;;4992181;28;20072;-67
2021/03/08 10:03:19;;;;;;;3.28;2.03;;;22.00;85.90;;;;;;5000349;28;20064;-65
2021/03/08 10:05:49;;;;;;;4.53;1.75;;;22.10;85.90;;;;;;4997867;28;20021;-67
2021/03/08 10:08:18;;;;;;;2.78;1.58;;;22.10;85.20;;;;;;5003267;28;20030;-68
2021/03/08 10:10:51;;;;;;;3.47;1.60;;;22.20;84.80;;;;;;5002655;28;20030;-66
2021/03/08 10:13:20;;;;;;;5.40;2.10;;;22.30;84.30;;;;;;5003039;28;20041;-68
2021/03/08 10:15:51;;;;;;;5.35;2.17;;;22.30;83.80;;;;;;5005111;28;20026;-67
2021/03/08 10:18:24;;;;;;;5.68;2.05;;;22.30;83.70;;;;;;5004338;28;20034;-67
2021/03/08 10:21:18;;;;;;;4.80;1.90;;;22.10;84.00;;;;;;5000776;28;20105;-67
2021/03/08 10:23:45;;;;;;;5.32;2.25;;;22.20;84.30;;;;;;5002534;28;20058;-66
2021/03/08 10:26:14;;;;;;;3.28;1.70;;;22.20;84.00;;;;;;5005448;28;20145;-67
2021/03/08 10:28:46;;;;;;;6.53;2.03;;;22.20;83.30;;;;;;5003834;28;20041;-67
2021/03/08 10:31:20;;;;;;;5.68;2.92;;;22.10;83.60;;;;;;5002199;28;20687;-68
2021/03/08 10:33:52;;;;;;;7.30;2.72;;;22.10;83.80;;;;;;5000959;28;20037;-68
2021/03/08 10:36:25;;;;;;;6.95;2.97;;;22.10;84.00;;;;;;5005345;28;20018;-66
2021/03/08 10:38:58;;;;;;;5.85;2.80;;;22.00;84.10;;;;;;5002920;28;20022;-66
2021/03/08 10:41:30;;;;;;;7.53;2.33;;;22.00;84.10;;;;;;5002670;28;20121;-67
2021/03/08 10:43:59;;;;;;;7.55;1.65;;;21.90;84.70;;;;;;5000845;28;20124;-67
2021/03/08 10:46:31;;;;;;;6.28;1.45;;;21.90;84.50;;;;;;5003098;28;20029;-69
2021/03/08 10:49:09;;;;;;;6.07;1.45;;;21.90;84.90;;;;;;5002322;28;20044;-67
2021/03/08 10:51:42;;;;;;;4.50;1.88;;;21.90;85.20;;;;;;4999995;28;21309;-67
2021/03/08 10:54:14;;;;;;;4.60;1.50;;;21.80;85.30;;;;;;5002253;28;20042;-67
2021/03/08 10:56:43;;;;;;;3.28;1.65;;;21.90;84.90;;;;;;4999835;28;20034;-68
2021/03/08 10:59:31;;;;;;;3.30;1.90;;;21.90;84.90;;;;;;5003359;28;20037;-68
2021/03/08 11:02:14;;;;;;;4.53;2.13;;;21.90;85.10;;;;;;5001714;28;20420;-66
2021/03/08 11:04:45;;;;;;;4.60;1.50;;;21.90;85.40;;;;;;5003662;28;20649;-67
2021/03/08 11:07:14;;;;;;;5.53;1.77;;;21.90;84.90;;;;;;5002817;28;20138;-68
2021/03/08 11:09:46;;;;;;;4.50;2.05;;;21.80;85.20;;;;;;5000047;28;20040;-70
2021/03/08 11:12:19;;;;;;;3.92;1.73;;;21.70;85.90;;;;;;4999874;28;20386;-67
2021/03/08 11:14:57;;;;;;;3.63;1.55;;;21.70;86.30;;;;;;5004379;28;20038;-67
2021/03/08 11:17:36;;;;;;;5.47;1.90;;;21.70;86.30;;;;;;5002731;28;20029;-67
2021/03/08 11:20:27;;;;;;;5.78;2.92;;;21.60;86.50;;;;;;5000060;28;20034;-66
2021/03/08 11:23:06;;;;;;;3.05;1.35;;;21.60;87.10;;;;;;5001894;28;20033;-68
2021/03/08 11:25:42;;;;;;;3.92;1.90;;;21.50;87.10;;;;;;5003757;28;20092;-67
2021/03/08 11:28:17;;;;;;;2.75;1.52;;;21.50;87.50;;;;;;5002800;28;20054;-66
2021/03/08 11:30:50;;;;;;;4.50;1.60;;;21.50;87.90;;;;;;5000087;28;20030;-67
2021/03/08 11:33:19;;;;;;;6.45;2.08;;;21.50;87.60;;;;;;5000337;28;20065;-67
2021/03/08 11:35:53;;;;;;;4.15;1.45;;;21.60;87.70;;;;;;5002301;28;20393;-66
2021/03/08 11:38:25;;;;;;;1.67;1.13;;;21.70;87.20;;;;;;5003181;28;20456;-66
2021/03/08 11:40:53;;;;;;;4.22;1.40;;;21.70;86.60;;;;;;5000469;28;20029;-66
2021/03/08 11:43:27;;;;;;;4.78;2.08;;;21.80;87.10;;;;;;4999620;28;20055;-66
2021/03/08 11:45:57;;;;;;;4.35;1.30;;;21.80;86.40;;;;;;5003456;28;20070;-67
2021/03/08 11:48:26;;;;;;;3.13;1.75;;;21.80;86.70;;;;;;5001818;28;20393;-66
2021/03/08 11:50:54;;;;;;;3.92;1.77;;;21.70;86.60;;;;;;4998395;28;20024;-68
2021/03/08 11:53:22;;;;;;;11.10;2.40;;;21.70;87.30;;;;;;5001207;28;20053;-66
2021/03/08 11:55:49;;;;;;;4.45;1.52;;;21.70;86.90;;;;;;4999735;28;20133;-68
2021/03/08 11:58:22;;;;;;;7.30;2.47;;;21.70;86.60;;;;;;5002661;28;20435;-66
2021/03/08 12:00:49;;;;;;;6.35;2.25;;;21.80;86.30;;;;;;5000832;28;20033;-67
2021/03/08 12:03:17;;;;;;;6.28;2.03;;;21.80;86.20;;;;;;4999319;28;20540;-66
2021/03/08 12:05:44;;;;;;;3.17;1.42;;;21.80;86.10;;;;;;5002345;28;20030;-65
2021/03/08 12:08:11;;;;;;;4.22;1.58;;;21.80;86.40;;;;;;5000643;28;20037;-66
2021/03/08 12:10:39;;;;;;;3.17;1.30;;;21.80;86.30;;;;;;4999395;28;20111;-67
2021/03/08 12:13:06;;;;;;;3.85;1.88;;;21.80;86.40;;;;;;5000375;28;20040;-66
2021/03/08 12:15:34;;;;;;;3.67;1.70;;;21.80;86.40;;;;;;5001616;28;20696;-69
2021/03/08 12:18:01;;;;;;;2.17;1.33;;;21.70;87.00;;;;;;5001216;28;20044;-67
2021/03/08 12:20:28;;;;;;;4.55;1.77;;;21.70;87.00;;;;;;4996980;28;20030;-66
2021/03/08 12:22:56;;;;;;;4.35;1.80;;;21.80;86.80;;;;;;4999597;28;20512;-66
2021/03/08 12:25:23;;;;;;;3.88;1.88;;;21.80;86.60;;;;;;5001978;28;20042;-68
2021/03/08 12:27:51;;;;;;;5.63;1.88;;;21.80;86.60;;;;;;5002841;28;20030;-67
2021/03/08 12:30:19;;;;;;;6.10;2.42;;;21.80;86.90;;;;;;4997820;28;20057;-67
2021/03/08 12:32:46;;;;;;;7.60;2.45;;;21.70;87.20;;;;;;4999235;28;20026;-67
2021/03/08 12:35:15;;;;;;;9.60;4.30;;;21.50;87.80;;;;;;5001568;28;20042;-66
2021/03/08 12:37:42;;;;;;;8.20;2.67;;;21.40;88.40;;;;;;5000729;28;20485;-66
2021/03/08 12:40:10;;;;;;;6.90;2.38;;;21.30;88.80;;;;;;4999800;28;20029;-67
2021/03/08 12:42:38;;;;;;;7.68;3.10;;;21.20;89.30;;;;;;4999636;28;20054;-68
2021/03/08 12:45:06;;;;;;;10.38;3.58;;;21.10;89.70;;;;;;5000043;28;20145;-66
2021/03/08 12:47:33;;;;;;;5.25;2.33;;;21.00;90.10;;;;;;5002167;28;20030;-66
2021/03/08 12:50:01;;;;;;;2.25;2.05;;;21.00;90.10;;;;;;4996986;28;20038;-66
2021/03/08 12:52:28;;;;;;;9.68;2.83;;;21.00;90.10;;;;;;4999019;28;20052;-68
2021/03/08 12:54:56;;;;;;;6.47;2.67;;;21.00;90.30;;;;;;5000825;28;20026;-68
2021/03/08 12:57:23;;;;;;;8.77;2.85;;;21.10;90.30;;;;;;5001456;28;20597;-67
2021/03/08 12:59:50;;;;;;;6.57;2.45;;;21.10;90.30;;;;;;4999801;28;20034;-67
2021/03/08 13:02:18;;;;;;;5.60;3.15;;;21.10;90.10;;;;;;4999123;28;20022;-67
2021/03/08 13:04:45;;;;;;;9.65;2.75;;;21.00;90.50;;;;;;5001707;28;20506;-65
2021/03/08 13:07:13;;;;;;;8.52;2.58;;;21.00;90.50;;;;;;5002822;28;20056;-67
2021/03/08 13:09:40;;;;;;;7.35;2.88;;;21.00;90.60;;;;;;4998187;28;20029;-67